createdAt,value
2022-11-28T00:01:01.433Z,100467.19
2022-11-28T00:04:05.271Z,100471.28
2022-11-28T00:07:08.166Z,100462.09
2022-11-28T00:10:11.545Z,100469.59
2022-11-28T00:13:15.773Z,100467.06
2022-11-28T00:16:21.554Z,100469.28
2022-11-28T00:19:24.556Z,100473.91
2022-11-28T00:22:29.470Z,100479.75
2022-11-28T00:25:32.269Z,100478.28
2022-11-28T00:28:36.800Z,100473.25
2022-11-28T00:31:42.744Z,100476.31
2022-11-28T00:34:46.045Z,100475.75
2022-11-28T00:37:48.811Z,100473.91
2022-11-28T00:40:58.933Z,100474.88
2022-11-28T00:44:03.203Z,100468.72
2022-11-28T00:47:06.010Z,100467.22
2022-11-28T00:50:09.221Z,100460.56
2022-11-28T00:53:11.986Z,100469.13
2022-11-28T00:56:15.515Z,100465.97
2022-11-28T00:59:19.673Z,100476.34
2022-11-28T01:02:22.578Z,100464.09
2022-11-28T01:05:25.386Z,100469.13
2022-11-28T01:08:28.456Z,100466.81
2022-11-28T01:11:31.752Z,100472.63
2022-11-28T01:14:35.922Z,100478.25
2022-11-28T01:17:38.739Z,100475.97
2022-11-28T01:20:41.517Z,100474.72
2022-11-28T01:23:44.476Z,100481.28
2022-11-28T01:26:47.261Z,100482.16
2022-11-28T01:29:51.566Z,100484.59
2022-11-28T01:32:54.294Z,100477.53
2022-11-28T01:35:57.813Z,100485.09
2022-11-28T01:39:00.746Z,100486.31
2022-11-28T01:42:03.497Z,100492.06
2022-11-28T01:45:13.073Z,100493.03
2022-11-28T01:48:19.362Z,100494.25
2022-11-28T01:51:22.358Z,100501.53
2022-11-28T01:54:26.727Z,100498.97
2022-11-28T01:57:29.579Z,100504.84
2022-11-28T02:00:34.813Z,100510.94
2022-11-28T02:03:41.918Z,100510.94
2022-11-28T02:06:44.873Z,100512.03
2022-11-28T02:09:47.675Z,100516.66
2022-11-28T02:13:12.291Z,100516.75
2022-11-28T02:16:26.812Z,100513.75
2022-11-28T02:19:44.446Z,100517.28
2022-11-28T02:22:50.002Z,100513.38
2022-11-28T02:26:10.665Z,100517.59
2022-11-28T02:29:29.310Z,100525.13
2022-11-28T02:32:49.960Z,100526.22
2022-11-28T02:35:58.153Z,100522.06
2022-11-28T02:39:07.141Z,100518.75
2022-11-28T02:42:14.208Z,100530.63
2022-11-28T02:45:20.992Z,100531.47
2022-11-28T02:48:28.205Z,100538.00
2022-11-28T02:51:35.232Z,100529.72
2022-11-28T02:54:39.671Z,100533.03
2022-11-28T02:57:43.805Z,100540.09
2022-11-28T03:00:47.577Z,100541.63
2022-11-28T03:03:57.681Z,100536.75
2022-11-28T03:07:07.703Z,100541.84
2022-11-28T03:10:15.757Z,100538.47
2022-11-28T03:13:23.615Z,100542.72
2022-11-28T03:16:28.598Z,100540.16
2022-11-28T03:19:33.941Z,100539.06
2022-11-28T03:22:42.166Z,100541.34
2022-11-28T03:25:56.465Z,100538.94
2022-11-28T03:29:02.114Z,100537.94
2022-11-28T03:32:07.836Z,100534.16
2022-11-28T03:35:12.985Z,100536.59
2022-11-28T03:38:19.814Z,100549.81
2022-11-28T03:41:25.101Z,100549.69
2022-11-28T03:44:29.756Z,100557.59
2022-11-28T03:47:35.748Z,100551.38
2022-11-28T03:50:43.128Z,100550.44
2022-11-28T03:53:51.691Z,100540.59
2022-11-28T03:56:58.273Z,100543.13
2022-11-28T04:00:02.477Z,100549.03
2022-11-28T04:03:11.829Z,100551.97
2022-11-28T04:06:17.868Z,100553.44
2022-11-28T04:09:25.170Z,100553.53
2022-11-28T04:12:32.608Z,100547.34
2022-11-28T04:15:39.155Z,100553.16
2022-11-28T04:18:48.057Z,100563.84
2022-11-28T04:21:54.386Z,100556.94
2022-11-28T04:24:59.784Z,100561.78
2022-11-28T04:28:05.322Z,100563.59
2022-11-28T04:31:08.650Z,100564.19
2022-11-28T04:34:13.012Z,100559.81
2022-11-28T04:37:16.871Z,100566.53
2022-11-28T04:40:22.109Z,100564.47
2022-11-28T04:43:26.462Z,100571.38
2022-11-28T04:46:31.864Z,100572.59
2022-11-28T04:49:35.001Z,100574.75
2022-11-28T04:52:40.340Z,100580.09
2022-11-28T04:55:46.978Z,100585.44
2022-11-28T04:58:50.729Z,100578.53
2022-11-28T05:01:53.634Z,100575.59
2022-11-28T05:04:56.630Z,100585.06
2022-11-28T05:08:00.045Z,100590.88
2022-11-28T05:11:04.286Z,100600.69
2022-11-28T05:14:07.019Z,100600.59
2022-11-28T05:17:09.882Z,100603.78
2022-11-28T05:20:12.946Z,100603.78
2022-11-28T05:23:15.691Z,100614.75
2022-11-28T05:26:20.583Z,100623.47
2022-11-28T05:29:24.949Z,100624.59
2022-11-28T05:32:30.034Z,100624.25
2022-11-28T05:35:32.831Z,100628.13
2022-11-28T05:38:36.012Z,100627.41
2022-11-28T05:41:40.169Z,100630.22
2022-11-28T05:44:43.034Z,100637.59
2022-11-28T05:47:45.818Z,100628.84
2022-11-28T05:50:50.750Z,100640.38
2022-11-28T05:53:53.513Z,100641.38
2022-11-28T05:56:57.734Z,100647.06
2022-11-28T06:00:00.485Z,100648.19
2022-11-28T06:03:03.310Z,100650.50
2022-11-28T06:06:06.264Z,100651.47
2022-11-28T06:09:09.096Z,100654.13
2022-11-28T06:12:13.514Z,100651.97
2022-11-28T06:15:16.694Z,100662.03
2022-11-28T06:18:19.460Z,100663.97
2022-11-28T06:21:22.776Z,100661.66
2022-11-28T06:24:25.657Z,100658.28
2022-11-28T06:27:30.057Z,100668.47
2022-11-28T06:30:32.892Z,100662.53
2022-11-28T06:33:36.655Z,100664.56
2022-11-28T06:36:39.745Z,100658.38
2022-11-28T06:39:42.713Z,100661.91
2022-11-28T06:42:50.423Z,100655.22
2022-11-28T06:45:53.246Z,100667.72
2022-11-28T06:48:56.099Z,100661.66
2022-11-28T06:51:58.843Z,100656.66
2022-11-28T06:55:01.643Z,100660.19
2022-11-28T06:58:05.837Z,100655.09
2022-11-28T07:01:09.664Z,100652.56
2022-11-28T07:04:12.540Z,100658.97
2022-11-28T07:07:16.815Z,100660.78
2022-11-28T07:10:19.914Z,100658.38
2022-11-28T07:13:24.414Z,100663.84
2022-11-28T07:16:28.300Z,100669.41
2022-11-28T07:19:31.097Z,100665.53
2022-11-28T07:22:33.816Z,100661.53
2022-11-28T07:25:36.634Z,100671.38
2022-11-28T07:28:41.421Z,100670.78
2022-11-28T07:31:44.298Z,100664.81
2022-11-28T07:34:50.100Z,100676.00
2022-11-28T07:37:53.193Z,100685.34
2022-11-28T07:40:56.003Z,100681.44
2022-11-28T07:44:01.309Z,100697.81
2022-11-28T07:47:04.645Z,100699.38
2022-11-28T07:50:08.131Z,100696.22
2022-11-28T07:53:11.225Z,100699.75
2022-11-28T07:56:15.299Z,100698.84
2022-11-28T07:59:19.500Z,100702.09
2022-11-28T17:20:29.384Z,100821.03
2022-11-28T17:23:32.433Z,100831.47
2022-11-28T17:26:35.195Z,100838.78
2022-11-28T17:29:37.997Z,100830.31
2022-11-28T17:32:44.146Z,100838.22
2022-11-28T17:35:51.039Z,100841.50
2022-11-28T17:38:53.850Z,100835.88
2022-11-28T17:41:57.265Z,100829.16
2022-11-28T17:45:00.044Z,100837.69
2022-11-28T17:48:02.836Z,100838.97
2022-11-28T17:51:07.061Z,100839.50
2022-11-28T17:54:11.343Z,100841.97
2022-11-28T17:57:14.305Z,100842.69
2022-11-28T18:00:17.687Z,100838.47
2022-11-28T18:03:20.561Z,100840.16
2022-11-28T18:06:24.790Z,100857.72
2022-11-28T18:09:29.233Z,100850.59
2022-11-28T18:12:32.359Z,100863.28
2022-11-28T18:15:36.075Z,100854.53
2022-11-28T18:18:38.897Z,100859.66
2022-11-28T18:21:43.125Z,100856.03
2022-11-28T18:24:45.898Z,100862.00
2022-11-28T18:27:48.710Z,100868.41
2022-11-28T18:30:51.487Z,100861.06
2022-11-28T18:33:58.910Z,100858.59
2022-11-28T18:37:05.925Z,100867.22
2022-11-28T18:40:09.726Z,100864.56
2022-11-28T18:43:13.128Z,100860.19
2022-11-28T18:46:17.537Z,100857.31
2022-11-28T18:49:20.491Z,100855.94
2022-11-28T18:52:24.788Z,100852.00
2022-11-28T18:55:27.548Z,100862.84
2022-11-28T18:58:30.787Z,100864.03
2022-11-28T19:01:35.508Z,100864.88
2022-11-28T19:04:41.455Z,100866.16
2022-11-28T19:07:45.750Z,100868.28
2022-11-28T19:10:48.666Z,100863.59
2022-11-28T19:13:53.590Z,100870.19
2022-11-28T19:16:56.963Z,100870.94
2022-11-28T19:19:59.841Z,100866.03
2022-11-28T19:23:03.984Z,100869.13
2022-11-28T19:26:08.565Z,100859.25
2022-11-28T19:29:11.369Z,100868.06
2022-11-28T19:32:14.251Z,100855.72
2022-11-28T19:35:17.276Z,100861.66
2022-11-28T19:38:21.511Z,100852.94
2022-11-28T19:41:24.758Z,100855.72
2022-11-28T19:44:29.471Z,100852.50
2022-11-28T19:47:32.300Z,100860.94
2022-11-28T19:50:35.172Z,100861.22
2022-11-28T19:53:41.526Z,100863.13
2022-11-28T19:56:44.565Z,100866.88
2022-11-28T19:59:47.603Z,100868.47
2022-11-28T20:02:50.631Z,100869.72
2022-11-28T20:05:53.393Z,100850.22
2022-11-28T20:08:59.856Z,100845.88
2022-11-28T20:12:02.623Z,100850.06
2022-11-28T20:15:05.870Z,100865.63
2022-11-28T20:18:08.709Z,100869.34
2022-11-28T20:21:12.914Z,100875.09
2022-11-28T20:24:17.385Z,100873.84
2022-11-28T20:27:20.164Z,100875.75
2022-11-28T20:30:22.985Z,100868.44
2022-11-28T20:33:25.697Z,100858.94
2022-11-28T20:36:29.849Z,100867.88
2022-11-28T20:39:34.024Z,100880.66
2022-11-28T20:42:39.975Z,100866.81
2022-11-28T20:45:43.098Z,100874.50
2022-11-28T20:48:45.994Z,100874.50
2022-11-28T20:51:50.337Z,100886.84
2022-11-28T20:54:54.469Z,100881.31
2022-11-28T20:57:57.308Z,100894.84
2022-11-28T21:01:00.302Z,100893.69
2022-11-28T21:04:04.281Z,100882.16
2022-11-28T21:07:06.986Z,100883.03
2022-11-28T21:10:11.625Z,100877.69
2022-11-28T21:13:14.438Z,100883.53
2022-11-28T21:16:18.831Z,100891.44
2022-11-28T21:19:21.860Z,100886.00
2022-11-28T21:22:24.750Z,100885.75
2022-11-28T21:25:28.929Z,100878.28
2022-11-28T21:28:31.633Z,100881.25
2022-11-28T21:31:35.449Z,100885.00
2022-11-28T21:34:38.394Z,100890.34
2022-11-28T21:37:41.148Z,100887.56
2022-11-28T21:40:52.267Z,100883.94
2022-11-28T21:43:55.411Z,100883.88
2022-11-28T21:46:58.231Z,100883.47
2022-11-28T21:50:01.027Z,100882.41
2022-11-28T21:53:03.772Z,100874.41
2022-11-28T21:56:08.329Z,100871.72
2022-11-28T21:59:11.082Z,100868.56
2022-11-28T22:02:15.227Z,100863.72
2022-11-28T22:05:18.125Z,100857.88
2022-11-28T22:08:21.114Z,100855.84
2022-11-28T22:11:25.615Z,100842.38
2022-11-28T22:14:36.407Z,100845.81
2022-11-28T22:17:39.488Z,100837.03
2022-11-28T22:20:45.750Z,100837.84
2022-11-28T22:23:50.752Z,100836.47
2022-11-28T22:26:55.064Z,100846.38
2022-11-28T22:29:57.873Z,100847.38
2022-11-28T22:33:00.713Z,100839.16
2022-11-28T22:36:04.683Z,100835.94
2022-11-28T22:39:07.499Z,100835.25
2022-11-28T22:42:11.648Z,100841.69
2022-11-28T22:45:14.421Z,100838.28
2022-11-28T22:48:19.255Z,100838.28
2022-11-28T22:51:24.266Z,100837.91
2022-11-28T22:54:27.051Z,100842.41
2022-11-28T22:57:31.229Z,100844.69
2022-11-28T23:00:33.960Z,100848.25
2022-11-28T23:03:37.093Z,100849.97
2022-11-28T23:06:39.938Z,100852.81
2022-11-28T23:09:42.752Z,100858.41
2022-11-28T23:12:46.880Z,100849.31
2022-11-28T23:15:52.776Z,100828.13
2022-11-28T23:18:56.796Z,100835.91
2022-11-28T23:21:59.638Z,100843.66
2022-11-28T23:25:02.397Z,100848.06
2022-11-28T23:28:07.334Z,100839.34
2022-11-28T23:31:12.192Z,100845.97
2022-11-28T23:34:15.300Z,100851.91
2022-11-28T23:37:18.486Z,100846.91
2022-11-28T23:40:21.250Z,100847.81
2022-11-28T23:43:25.421Z,100849.22
2022-11-28T23:46:28.554Z,100846.28
2022-11-28T23:49:31.359Z,100850.78
2022-11-28T23:52:34.133Z,100842.53
2022-11-28T23:55:36.966Z,100845.19
2022-11-28T23:58:42.630Z,100846.16
